createdAt,value
2023-01-10T00:00:56.733Z,100137.34
2023-01-10T00:03:26.557Z,100145.59
2023-01-10T00:05:56.271Z,100140.28
2023-01-10T00:08:26.102Z,100148.34
2023-01-10T00:10:55.854Z,100157.91
2023-01-10T00:13:25.635Z,100155.28
2023-01-10T00:15:55.823Z,100159.25
2023-01-10T00:18:24.978Z,100162.03
2023-01-10T00:20:52.674Z,100159.97
2023-01-10T00:23:22.844Z,100160.78
2023-01-10T00:25:52.870Z,100162.22
2023-01-10T00:28:23.823Z,100156.63
2023-01-10T00:31:01.884Z,100153.97
2023-01-10T00:33:33.179Z,100156.31
2023-01-10T00:36:07.844Z,100165.78
2023-01-10T00:38:37.948Z,100162.63
2023-01-10T00:41:27.571Z,100165.91
2023-01-10T00:43:57.509Z,100172.44
2023-01-10T00:46:27.783Z,100172.34
2023-01-10T00:48:57.733Z,100178.75
2023-01-10T00:51:27.470Z,100182.09
2023-01-10T00:53:57.678Z,100185.88
2023-01-10T00:56:27.677Z,100192.94
2023-01-10T00:58:57.342Z,100193.97
2023-01-10T01:01:27.310Z,100201.31
2023-01-10T01:03:59.995Z,100201.31
2023-01-10T01:06:27.920Z,100201.38
2023-01-10T01:08:58.000Z,100204.53
2023-01-10T01:11:27.865Z,100213.09
2023-01-10T01:13:57.496Z,100222.91
2023-01-10T01:16:27.357Z,100231.34
2023-01-10T01:18:57.908Z,100241.38
2023-01-10T01:21:28.253Z,100244.31
2023-01-10T01:23:58.349Z,100253.66
2023-01-10T01:26:28.169Z,100254.50
2023-01-10T01:28:57.942Z,100267.34
2023-01-10T01:31:27.642Z,100259.25
2023-01-10T01:33:57.739Z,100270.22
2023-01-10T01:36:28.905Z,100291.00
2023-01-10T01:38:58.995Z,100286.19
2023-01-10T01:41:47.622Z,100295.13
2023-01-10T01:44:20.130Z,100295.03
2023-01-10T01:47:07.849Z,100302.00
2023-01-10T01:49:45.452Z,100310.34
2023-01-10T01:52:35.043Z,100311.69
2023-01-10T01:55:07.234Z,100312.34
2023-01-10T01:57:38.490Z,100312.34
2023-01-10T02:00:10.739Z,100325.38
2023-01-10T02:03:02.069Z,100328.84
2023-01-10T02:05:40.733Z,100326.03
2023-01-10T02:08:13.980Z,100329.16
2023-01-10T02:11:10.971Z,100326.28
2023-01-10T02:13:46.568Z,100323.72
2023-01-10T02:16:17.192Z,100325.56
2023-01-10T02:18:47.473Z,100337.09
2023-01-10T02:21:35.027Z,100344.16
2023-01-10T02:24:23.000Z,100349.59
2023-01-10T02:27:27.773Z,100356.34
2023-01-10T02:30:31.069Z,100361.25
2023-01-10T02:33:33.841Z,100363.78
2023-01-10T02:36:39.694Z,100357.53
2023-01-10T02:39:46.677Z,100358.91
2023-01-10T02:42:42.158Z,100371.00
2023-01-10T02:45:33.885Z,100363.66
2023-01-10T02:48:04.269Z,100370.06
2023-01-10T02:50:44.234Z,100373.75
2023-01-10T02:53:24.508Z,100368.78
2023-01-10T02:56:34.652Z,100385.28
2023-01-10T02:59:35.151Z,100384.00
2023-01-10T03:02:47.073Z,100394.13
2023-01-10T03:06:06.375Z,100397.31
2023-01-10T03:09:07.290Z,100403.09
2023-01-10T03:11:46.601Z,100408.56
2023-01-10T03:14:28.723Z,100420.72
2023-01-10T03:17:09.147Z,100429.78
2023-01-10T03:19:53.727Z,100433.69
2023-01-10T03:22:30.876Z,100432.31
2023-01-10T03:25:07.637Z,100438.00
2023-01-10T03:28:05.633Z,100453.13
2023-01-10T03:30:56.275Z,100447.09
2023-01-10T03:33:32.756Z,100459.13
2023-01-10T03:36:32.098Z,100459.84
2023-01-10T03:39:35.669Z,100461.25
2023-01-10T03:43:28.389Z,100466.59
2023-01-10T03:46:27.828Z,100472.50
2023-01-10T03:49:05.011Z,100483.16
2023-01-10T03:51:39.743Z,100481.22
2023-01-10T03:54:10.061Z,100488.41
2023-01-10T03:56:52.154Z,100487.16
2023-01-10T03:59:30.224Z,100493.34
2023-01-10T04:02:00.376Z,100503.34
2023-01-10T04:04:32.287Z,100511.19
2023-01-10T04:07:02.268Z,100519.03
2023-01-10T04:09:32.312Z,100513.66
2023-01-10T04:12:02.834Z,100524.97
2023-01-10T04:14:32.907Z,100537.72
2023-01-10T04:17:01.368Z,100540.41
2023-01-10T04:19:29.718Z,100546.38
2023-01-10T04:21:58.132Z,100551.81
2023-01-10T04:24:26.575Z,100550.19
2023-01-10T04:26:55.243Z,100556.03
2023-01-10T04:29:23.928Z,100562.75
2023-01-10T04:31:52.272Z,100565.50
2023-01-10T04:34:21.750Z,100561.72
2023-01-10T04:36:50.815Z,100574.75
2023-01-10T04:39:20.451Z,100575.63
2023-01-10T04:41:48.927Z,100578.75
2023-01-10T04:44:17.384Z,100596.63
2023-01-10T04:46:45.776Z,100604.75
2023-01-10T04:49:14.427Z,100605.06
2023-01-10T04:51:43.000Z,100610.84
2023-01-10T04:54:11.445Z,100624.72
2023-01-10T04:56:40.129Z,100630.00
2023-01-10T04:59:10.710Z,100632.97
2023-01-10T05:01:40.893Z,100637.19
2023-01-10T05:04:11.224Z,100646.78
2023-01-10T05:06:41.462Z,100644.59
2023-01-10T05:09:11.477Z,100643.53
2023-01-10T05:11:41.629Z,100652.53
2023-01-10T05:14:11.649Z,100657.69
2023-01-10T05:16:41.675Z,100664.59
2023-01-10T05:19:12.253Z,100655.81
2023-01-10T05:21:42.265Z,100666.28
2023-01-10T05:24:12.389Z,100666.34
2023-01-10T05:26:42.391Z,100687.00
2023-01-10T05:29:14.477Z,100690.56
2023-01-10T05:31:44.588Z,100689.75
2023-01-10T05:34:14.615Z,100701.22
2023-01-10T05:36:44.613Z,100702.09
2023-01-10T05:39:14.733Z,100702.91
2023-01-10T05:41:44.965Z,100714.16
2023-01-10T05:44:15.030Z,100707.84
2023-01-10T05:46:45.137Z,100718.00
2023-01-10T05:49:13.518Z,100726.16
2023-01-10T05:51:42.464Z,100730.19
2023-01-10T05:54:10.420Z,100735.50
2023-01-10T05:56:38.926Z,100735.16
2023-01-10T05:59:17.066Z,100737.16
2023-01-10T06:01:57.292Z,100746.22
2023-01-10T06:04:27.352Z,100744.34
2023-01-10T06:06:57.391Z,100755.56
2023-01-10T06:09:27.361Z,100763.84
2023-01-10T06:11:57.413Z,100761.91
2023-01-10T06:14:27.456Z,100770.44
2023-01-10T06:16:58.301Z,100778.94
2023-01-10T06:19:28.790Z,100780.03
2023-01-10T06:21:59.273Z,100788.53
2023-01-10T06:24:29.343Z,100796.25
2023-01-10T06:26:59.418Z,100805.41
2023-01-10T06:29:29.437Z,100806.28
2023-01-10T06:31:59.668Z,100810.16
2023-01-10T06:34:29.716Z,100812.72
2023-01-10T06:36:59.691Z,100829.44
2023-01-10T06:39:29.763Z,100827.22
2023-01-10T06:42:00.672Z,100836.03
2023-01-10T06:44:30.655Z,100844.56
2023-01-10T06:47:00.684Z,100853.94
2023-01-10T06:49:30.769Z,100850.34
2023-01-10T06:52:00.796Z,100850.66
2023-01-10T06:54:30.867Z,100865.78
2023-01-10T06:57:00.904Z,100867.72
2023-01-10T06:59:30.936Z,100874.84
2023-01-10T07:02:01.122Z,100884.91
2023-01-10T07:04:31.264Z,100888.53
2023-01-10T07:07:01.368Z,100883.34
2023-01-10T07:09:31.392Z,100895.75
2023-01-10T07:12:01.408Z,100886.66
2023-01-10T07:14:31.447Z,100895.16
2023-01-10T07:17:01.457Z,100903.72
2023-01-10T07:19:31.543Z,100900.03
2023-01-10T07:22:01.673Z,100911.91
2023-01-10T07:24:31.671Z,100912.72
2023-01-10T07:27:01.682Z,100919.06
2023-01-10T07:29:31.764Z,100918.41
2023-01-10T07:32:01.927Z,100927.00
2023-01-10T07:34:32.350Z,100926.47
2023-01-10T07:37:02.672Z,100929.78
2023-01-10T07:39:32.772Z,100936.13
2023-01-10T07:42:02.787Z,100951.81
2023-01-10T07:44:32.807Z,100951.53
2023-01-10T07:47:03.340Z,100959.50
2023-01-10T07:49:33.334Z,100963.06
2023-01-10T07:52:03.431Z,100966.91
2023-01-10T07:54:33.463Z,100960.09
2023-01-10T07:57:02.865Z,100967.72
2023-01-10T07:59:30.326Z,100980.31
2023-01-10T08:01:58.690Z,100994.06
2023-01-10T08:04:27.204Z,100991.94
2023-01-10T08:06:55.759Z,100990.91
2023-01-10T08:09:24.028Z,100997.75
2023-01-10T08:11:52.463Z,101003.81
2023-01-10T08:14:20.937Z,100996.38
2023-01-10T08:16:49.284Z,101011.22
2023-01-10T08:19:18.535Z,101013.13
2023-01-10T08:21:46.271Z,101015.03
2023-01-10T08:24:14.590Z,101019.72
2023-01-10T08:26:43.001Z,101019.16
2023-01-10T08:29:11.485Z,101030.41
2023-01-10T08:31:41.977Z,101035.31
2023-01-10T08:34:14.721Z,101039.22
2023-01-10T08:36:45.108Z,101035.63
2023-01-10T08:39:15.427Z,101039.41
2023-01-10T08:41:45.438Z,101037.44
2023-01-10T08:44:15.916Z,101043.78
2023-01-10T08:46:46.127Z,101055.34
2023-01-10T08:49:16.231Z,101053.94
2023-01-10T08:51:46.324Z,101062.75
2023-01-10T08:54:16.516Z,101057.53
2023-01-10T08:56:46.521Z,101068.44
2023-01-10T08:59:16.599Z,101068.22
2023-01-10T09:01:46.723Z,101072.44
2023-01-10T09:04:17.255Z,101081.50
2023-01-10T09:06:47.248Z,101079.34
2023-01-10T09:09:17.275Z,101085.41
2023-01-10T09:11:47.298Z,101083.47
2023-01-10T09:14:17.312Z,101086.50
2023-01-10T09:16:47.381Z,101093.44
2023-01-10T09:19:18.300Z,101097.47
2023-01-10T09:21:48.304Z,101097.44
2023-01-10T09:24:18.301Z,101102.22
2023-01-10T09:26:48.333Z,101100.97
2023-01-10T09:29:18.313Z,101104.56
2023-01-10T09:31:48.414Z,101103.53
2023-01-10T09:34:18.407Z,101109.69
2023-01-10T09:36:47.451Z,101113.06
2023-01-10T09:39:15.279Z,101114.88
2023-01-10T09:42:44.388Z,101121.25
2023-01-10T09:45:59.733Z,101123.47
2023-01-10T09:49:00.023Z,101115.34
2023-01-10T09:51:43.499Z,101124.41
2023-01-10T09:54:41.566Z,101130.81
2023-01-10T09:57:21.555Z,101128.28
2023-01-10T09:59:54.509Z,101125.22
2023-01-10T10:02:39.525Z,101121.44
2023-01-10T10:05:26.758Z,101126.34
2023-01-10T10:08:05.074Z,101130.88
2023-01-10T10:10:56.664Z,101130.53
2023-01-10T10:13:55.416Z,101125.31
2023-01-10T10:16:58.512Z,101128.53
2023-01-10T10:20:02.178Z,101131.84
2023-01-10T10:23:18.181Z,101139.22
2023-01-10T10:26:35.849Z,101130.97
2023-01-10T10:29:54.923Z,101132.06
2023-01-10T10:32:39.393Z,101133.75
2023-01-10T10:35:35.526Z,101141.47
2023-01-10T10:38:29.958Z,101144.28
2023-01-10T10:41:02.400Z,101154.50
2023-01-10T10:43:39.627Z,101167.97
2023-01-10T10:46:20.113Z,101159.44
2023-01-10T10:49:26.514Z,101162.59
2023-01-10T10:51:57.374Z,101171.78
2023-01-10T10:54:27.867Z,101163.28
2023-01-10T10:56:58.486Z,101169.56
2023-01-10T10:59:28.869Z,101172.03
2023-01-10T11:01:59.231Z,101187.09
2023-01-10T11:04:32.378Z,101195.34
2023-01-10T11:07:02.379Z,101198.38
2023-01-10T11:10:04.886Z,101195.56
2023-01-10T11:12:45.719Z,101186.47
2023-01-10T11:15:48.561Z,101184.31
2023-01-10T11:18:26.106Z,101182.00
2023-01-10T11:21:08.736Z,101161.41
2023-01-10T11:23:54.427Z,101157.38
2023-01-10T11:26:37.251Z,101160.13
2023-01-10T11:29:39.734Z,101165.91
2023-01-10T11:32:27.654Z,101179.06
2023-01-10T11:35:20.538Z,101175.50
2023-01-10T11:38:30.054Z,101176.22
2023-01-10T11:41:25.310Z,101172.72
2023-01-10T11:44:27.980Z,101172.59
2023-01-10T11:47:14.802Z,101177.78
2023-01-10T11:49:45.247Z,101183.97
2023-01-10T11:52:30.507Z,101186.13
2023-01-10T11:55:01.667Z,101186.97
2023-01-10T11:57:33.839Z,101189.19
2023-01-10T12:00:10.965Z,101197.44
2023-01-10T12:02:45.017Z,101197.72
2023-01-10T12:05:23.827Z,101192.47
2023-01-10T12:08:10.685Z,101190.56
2023-01-10T12:10:39.491Z,101185.59
2023-01-10T12:13:17.755Z,101186.34
2023-01-10T12:15:49.330Z,101181.59
2023-01-10T12:18:19.712Z,101189.16
2023-01-10T12:20:53.126Z,101186.22
2023-01-10T12:23:28.605Z,101183.97
2023-01-10T12:26:11.348Z,101192.47
2023-01-10T12:28:58.730Z,101189.00
2023-01-10T12:31:32.746Z,101190.13
2023-01-10T12:34:20.394Z,101192.72
2023-01-10T12:37:21.717Z,101200.34
2023-01-10T12:40:11.495Z,101201.88
2023-01-10T12:43:48.072Z,101206.78
2023-01-10T12:47:12.895Z,101213.91
2023-01-10T12:50:03.159Z,101222.56
2023-01-10T12:53:05.881Z,101228.25
2023-01-10T12:55:46.045Z,101217.72
2023-01-10T12:58:36.259Z,101229.06
2023-01-10T13:01:10.837Z,101228.19
2023-01-10T13:03:42.975Z,101238.16
2023-01-10T13:06:33.569Z,101237.72
2023-01-10T13:09:27.680Z,101236.97
2023-01-10T13:12:17.346Z,101246.31
2023-01-10T13:15:05.105Z,101244.84
2023-01-10T13:17:33.601Z,101250.97
2023-01-10T13:20:21.763Z,101265.66
2023-01-10T13:23:01.012Z,101257.09
2023-01-10T13:25:39.507Z,101253.88
2023-01-10T13:28:26.992Z,101257.78
2023-01-10T13:31:02.410Z,101261.06
2023-01-10T13:33:59.730Z,101271.31
2023-01-10T13:36:41.438Z,101273.59
2023-01-10T13:39:40.015Z,101268.91
2023-01-10T13:42:49.088Z,101266.16
2023-01-10T13:45:31.546Z,101264.25
2023-01-10T13:48:27.593Z,101266.75
2023-01-10T13:51:28.440Z,101263.16
2023-01-10T13:54:15.859Z,101266.47
2023-01-10T13:56:46.209Z,101265.06
2023-01-10T13:59:46.393Z,101270.25
2023-01-10T14:02:31.898Z,101265.19
2023-01-10T14:05:07.564Z,101271.59
2023-01-10T14:07:55.901Z,101266.88
2023-01-10T14:10:33.133Z,101269.19
2023-01-10T14:13:22.724Z,101271.78
2023-01-10T14:15:53.209Z,101276.50
2023-01-10T14:18:39.269Z,101282.88
2023-01-10T14:21:27.287Z,101282.72
2023-01-10T14:23:58.960Z,101284.13
2023-01-10T14:26:44.130Z,101285.19
2023-01-10T14:29:20.712Z,101281.69
2023-01-10T14:31:53.505Z,101287.50
2023-01-10T14:34:35.611Z,101279.81
2023-01-10T14:37:29.373Z,101276.53
2023-01-10T14:40:00.989Z,101274.59
2023-01-10T14:42:31.337Z,101279.50
2023-01-10T14:45:50.567Z,101279.53
2023-01-10T14:48:40.399Z,101278.97
2023-01-10T14:51:21.715Z,101280.00
2023-01-10T14:54:12.456Z,101283.03
2023-01-10T14:56:52.540Z,101286.97
2023-01-10T14:59:38.014Z,101283.44
2023-01-10T15:02:25.816Z,101275.75
2023-01-10T15:05:10.387Z,101280.19
2023-01-10T15:07:40.481Z,101278.28
2023-01-10T15:10:34.146Z,101282.16
2023-01-10T15:13:07.793Z,101280.22
2023-01-10T15:15:41.178Z,101285.19
2023-01-10T15:18:44.291Z,101277.81
2023-01-10T15:21:20.743Z,101293.78
2023-01-10T15:23:51.314Z,101291.03
2023-01-10T15:26:33.544Z,101287.44
2023-01-10T15:29:25.399Z,101293.50
2023-01-10T15:32:08.313Z,101288.81
2023-01-10T15:34:39.791Z,101290.75
2023-01-10T15:37:26.660Z,101298.41
2023-01-10T15:39:55.728Z,101303.63
2023-01-10T15:42:24.560Z,101293.44
2023-01-10T15:44:56.100Z,101301.72
2023-01-10T15:47:42.808Z,101305.31
2023-01-10T15:50:38.872Z,101306.41
2023-01-10T15:53:12.061Z,101310.25
2023-01-10T15:55:53.930Z,101306.13
2023-01-10T15:58:36.672Z,101303.66
2023-01-10T16:01:06.907Z,101301.44
2023-01-10T16:03:51.450Z,101292.63
2023-01-10T16:06:29.924Z,101294.84
2023-01-10T16:09:09.062Z,101294.31
2023-01-10T16:12:12.844Z,101301.75
2023-01-10T16:14:42.979Z,101296.25
2023-01-10T16:17:13.066Z,101293.75
2023-01-10T16:19:43.074Z,101293.75
2023-01-10T16:22:20.067Z,101284.44
2023-01-10T16:24:52.508Z,101294.59
2023-01-10T16:27:22.629Z,101284.41
2023-01-10T16:29:53.625Z,101288.53
2023-01-10T16:32:23.779Z,101285.53
2023-01-10T16:34:53.502Z,101290.47
2023-01-10T16:37:25.001Z,101292.38
2023-01-10T16:39:56.778Z,101289.34
2023-01-10T16:43:17.985Z,101291.28
2023-01-10T16:45:59.884Z,101290.47
2023-01-10T16:48:33.554Z,101289.66
2023-01-10T16:51:28.684Z,101294.84
2023-01-10T16:53:56.935Z,101301.75
2023-01-10T16:56:29.634Z,101302.03
2023-01-10T16:58:59.150Z,101301.19
2023-01-10T17:01:43.521Z,101298.94
2023-01-10T17:04:24.212Z,101298.94
2023-01-10T17:06:54.484Z,101289.09
2023-01-10T17:09:31.135Z,101286.84
2023-01-10T17:12:18.098Z,101278.88
2023-01-10T17:14:48.349Z,101299.00
2023-01-10T17:17:18.406Z,101286.59
2023-01-10T17:19:48.609Z,101286.31
2023-01-10T17:22:18.876Z,101279.97
2023-01-10T17:24:49.562Z,101283.28
2023-01-10T17:27:19.142Z,101284.38
2023-01-10T17:29:49.152Z,101290.72
2023-01-10T17:51:00.008Z,101290.03
2023-01-10T17:53:30.860Z,101290.00
2023-01-10T17:56:01.825Z,101285.81
2023-01-10T17:58:31.830Z,101290.00
2023-01-10T18:01:02.057Z,101288.31
2023-01-10T18:03:32.153Z,101289.09
2023-01-10T18:06:00.542Z,101295.69
2023-01-10T18:08:28.963Z,101296.03
2023-01-10T18:11:02.030Z,101290.56
2023-01-10T18:13:32.051Z,101291.72
2023-01-10T18:16:03.892Z,101290.81
2023-01-10T18:18:33.900Z,101288.63
2023-01-10T18:21:05.399Z,101286.19
2023-01-10T18:23:35.406Z,101280.38
2023-01-10T18:26:09.247Z,101283.63
2023-01-10T18:28:44.797Z,101289.38
2023-01-10T18:31:18.842Z,101281.97
2023-01-10T18:33:49.393Z,101287.13
2023-01-10T18:36:24.344Z,101285.47
2023-01-10T18:38:54.508Z,101272.53
2023-01-10T18:41:24.542Z,101270.56
2023-01-10T18:43:54.574Z,101281.53
2023-01-10T18:46:25.286Z,101274.84
2023-01-10T18:48:55.519Z,101269.25
2023-01-10T18:51:25.617Z,101275.91
2023-01-10T18:53:55.722Z,101265.97
2023-01-10T18:56:24.084Z,101265.41
2023-01-10T18:58:52.581Z,101264.81
2023-01-10T19:01:22.301Z,101259.00
2023-01-10T19:03:52.531Z,101263.03
2023-01-10T19:06:22.906Z,101261.91
2023-01-10T19:08:52.980Z,101251.50
2023-01-10T19:11:23.626Z,101258.03
2023-01-10T19:13:54.158Z,101248.94
2023-01-10T19:16:31.961Z,101252.22
2023-01-10T19:19:09.396Z,101257.47
2023-01-10T19:21:40.054Z,101245.84
2023-01-10T19:24:29.794Z,101247.63
2023-01-10T19:26:59.855Z,101245.28
2023-01-10T19:29:33.449Z,101246.63
2023-01-10T19:32:04.336Z,101245.53
2023-01-10T19:34:34.694Z,101242.69
2023-01-10T19:37:04.748Z,101239.16
2023-01-10T19:39:36.294Z,101236.63
2023-01-10T19:42:12.053Z,101231.38
2023-01-10T19:44:43.871Z,101228.00
2023-01-10T19:47:15.663Z,101222.84
2023-01-10T19:49:45.350Z,101228.41
2023-01-10T19:52:13.730Z,101225.34
2023-01-10T19:54:42.205Z,101223.63
2023-01-10T19:57:10.645Z,101223.88
2023-01-10T19:59:41.633Z,101212.91
2023-01-10T20:02:13.770Z,101211.31
2023-01-10T20:04:43.921Z,101214.03
2023-01-10T20:07:13.931Z,101200.25
2023-01-10T20:09:43.924Z,101207.03
2023-01-10T20:12:16.685Z,101199.59
2023-01-10T20:14:45.371Z,101199.28
2023-01-10T20:17:13.797Z,101192.53
2023-01-10T20:19:42.255Z,101186.13
2023-01-10T20:22:11.003Z,101189.53
2023-01-10T20:24:39.130Z,101185.88
2023-01-10T20:27:09.495Z,101184.75
2023-01-10T20:29:42.532Z,101189.34
2023-01-10T20:32:14.918Z,101186.59
2023-01-10T20:34:45.452Z,101190.69
2023-01-10T20:37:15.558Z,101184.09
2023-01-10T20:39:46.678Z,101189.84
2023-01-10T20:42:16.714Z,101181.53
2023-01-10T20:44:46.721Z,101187.34
2023-01-10T20:47:17.461Z,101178.22
2023-01-10T20:49:47.476Z,101182.78
2023-01-10T20:52:17.496Z,101184.94
2023-01-10T20:54:47.607Z,101180.81
2023-01-10T20:57:17.635Z,101173.59
2023-01-10T20:59:47.716Z,101170.88
2023-01-10T21:02:17.950Z,101178.81
2023-01-10T21:04:50.388Z,101174.41
2023-01-10T21:07:20.654Z,101170.94
2023-01-10T21:09:50.301Z,101176.50
2023-01-10T21:12:23.250Z,101167.94
2023-01-10T21:14:53.992Z,101164.50
2023-01-10T21:17:24.025Z,101155.13
2023-01-10T21:19:52.493Z,101154.09
2023-01-10T21:22:20.857Z,101157.88
2023-01-10T21:24:49.974Z,101155.63
2023-01-10T21:27:17.977Z,101163.13
2023-01-10T21:29:46.267Z,101156.03
2023-01-10T21:32:14.767Z,101151.59
2023-01-10T21:34:43.320Z,101148.53
2023-01-10T21:37:11.743Z,101145.09
2023-01-10T21:39:40.093Z,101143.63
2023-01-10T21:42:31.809Z,101139.53
2023-01-10T21:45:02.185Z,101136.13
2023-01-10T21:47:34.387Z,101126.78
2023-01-10T21:50:07.694Z,101117.34
2023-01-10T21:52:38.925Z,101122.34
2023-01-10T21:55:13.122Z,101123.78
2023-01-10T21:57:42.805Z,101109.22
2023-01-10T22:00:13.546Z,101111.94
2023-01-10T22:02:43.187Z,101107.34
2023-01-10T22:05:11.398Z,101110.66
2023-01-10T22:07:40.909Z,101107.16
2023-01-10T22:10:12.262Z,101100.81
2023-01-10T22:12:41.882Z,101104.75
2023-01-10T22:15:12.357Z,101097.53
2023-01-10T22:17:42.094Z,101091.19
2023-01-10T22:20:12.602Z,101096.25
2023-01-10T22:22:42.316Z,101105.72
2023-01-10T22:25:12.063Z,101089.78
2023-01-10T22:27:44.192Z,101086.28
2023-01-10T22:30:12.686Z,101086.13
2023-01-10T22:32:42.372Z,101075.69
2023-01-10T22:35:15.163Z,101070.75
2023-01-10T22:37:43.939Z,101070.72
2023-01-10T22:40:13.699Z,101062.25
2023-01-10T22:42:43.461Z,101067.16
2023-01-10T22:45:13.231Z,101064.22
2023-01-10T22:47:43.032Z,101063.63
2023-01-10T22:50:12.808Z,101060.09
2023-01-10T22:52:42.616Z,101054.63
2023-01-10T22:55:12.357Z,101053.47
2023-01-10T22:57:47.099Z,101052.13
2023-01-10T23:00:21.461Z,101052.38
2023-01-10T23:02:50.191Z,101046.97
2023-01-10T23:05:20.105Z,101040.38
2023-01-10T23:07:51.546Z,101038.41
2023-01-10T23:10:30.126Z,101040.59
2023-01-10T23:13:02.318Z,101021.97
2023-01-10T23:15:32.301Z,101025.84
2023-01-10T23:18:02.262Z,101015.13
2023-01-10T23:20:34.297Z,101014.63
2023-01-10T23:23:04.008Z,101020.94
2023-01-10T23:25:33.774Z,101019.31
2023-01-10T23:28:03.762Z,101020.41
2023-01-10T23:30:33.559Z,101014.88
2023-01-10T23:33:03.756Z,101005.78
2023-01-10T23:35:33.515Z,101005.28
2023-01-10T23:38:03.333Z,100997.56
2023-01-10T23:40:33.101Z,100993.47
2023-01-10T23:43:02.916Z,100985.47
2023-01-10T23:45:33.493Z,100990.75
2023-01-10T23:48:05.840Z,100981.44
2023-01-10T23:50:34.841Z,100974.84
2023-01-10T23:53:06.549Z,100976.47
2023-01-10T23:55:35.940Z,100969.66
2023-01-10T23:58:06.060Z,100965.50
